McGees Mills, Pennsylvania
Current Conditions -  °F | °C
As of 11:54 AM on Thursday 30 Oct 2014 (Local Time) from KFIG Reporting Station
Overcast Overcast  
Wind Chill: 44°   Ceiling: 3500
Heat Index: 48°   Visibility: 10mi
Dew Point: 33°   Wind: 8mph
Humidity: 56%   Direction: 330°NNW
Pressure: 30.07"   Gusts: NA
Location:  40.9103°N, 78.7273°W
Report Text: KFIG 301554Z AUTO 33007KT 290V350 10SM BKN035 OVC043 09/01 A3007 RMK AO2 SLP186 T00890006
Loading
Personal Weather Stations






























Interactive Weather Map
Tropical Storm Tracking
New forecast layout! Learn more

10-Day Weather Forecast

Advertisements
Track Severe Weather on mobile